Terminal Aerodrome Forecast
Issued by NWS

Home | Current Version | Previous Version | Text Only | Print | Product List | Glossary On
Versions: 1 2 3 4 5 6 7 8 9 10 11 12 13
937
FTUS46 KSGX 191143
TAFONT
TAF
KONT 191143Z 1912/2018 24011KT P6SM SCT030 BKN050
     FM191800 25020G30KT P6SM BKN050
     FM200300 26009KT P6SM SCT050
     FM200500 VRB04KT P6SM SKC=

USA.gov is the U.S. government's official web portal to all federal, state and local government web resources and services.